Time;durP1;ratioP1;P1;durP2;ratioP2;P2;SDS_P1;SDS_P2;PMS_P1;PMS_P2;Temp;Humidity;BMP_temperature;BMP_pressure;BME280_temperature;BME280_humidity;BME280_pressure;Samples;Min_cycle;Max_cycle;Signal;HPM_P1;HPM_P2
2023/06/02 00:01:20;;;;;;;12.73;5.93;;;;;;;;;;5134023;27;20047;-71
2023/06/02 00:03:47;;;;;;;9.38;6.28;;;;;;;;;;5134074;27;20136;-72
2023/06/02 00:06:18;;;;;;;12.38;6.20;;;;;;;;;;5134161;27;20093;-72
2023/06/02 00:08:47;;;;;;;15.23;6.97;;;;;;;;;;5134481;27;20019;-72
2023/06/02 00:11:14;;;;;;;12.43;6.10;;;;;;;;;;5133916;27;20500;-70
2023/06/02 00:13:42;;;;;;;12.85;6.25;;;;;;;;;;5134170;27;20375;-70
2023/06/02 00:16:08;;;;;;;13.50;7.18;;;;;;;;;;5133868;27;20405;-71
2023/06/02 00:18:37;;;;;;;12.15;6.57;;;;;;;;;;5133952;27;20527;-71
2023/06/02 00:21:11;;;;;;;13.52;6.82;;;;;;;;;;5133981;28;20019;-71
2023/06/02 00:23:37;;;;;;;15.38;6.20;;;;;;;;;;5133983;28;20094;-72
2023/06/02 00:26:02;;;;;;;9.38;5.80;;;;;;;;;;5133974;28;20046;-71
2023/06/02 00:28:28;;;;;;;13.85;6.13;;;;;;;;;;5134329;28;20065;-71
2023/06/02 00:30:53;;;;;;;10.82;6.10;;;;;;;;;;5098592;28;20047;-71
2023/06/02 00:33:18;;;;;;;10.20;6.40;;;;;;;;;;5133963;28;20063;-70
2023/06/02 00:35:44;;;;;;;16.85;6.53;;;;;;;;;;5134157;28;20011;-72
2023/06/02 00:38:10;;;;;;;14.23;6.85;;;;;;;;;;5133654;28;20031;-72
2023/06/02 00:40:36;;;;;;;14.15;6.60;;;;;;;;;;5134186;27;20039;-72
2023/06/02 00:43:02;;;;;;;12.25;7.10;;;;;;;;;;5137846;27;20455;-71
2023/06/02 00:45:28;;;;;;;13.43;7.05;;;;;;;;;;5137958;27;20114;-72
2023/06/02 00:48:08;;;;;;;8.32;6.45;;;;;;;;;;5138255;27;20023;-71
2023/06/02 00:50:35;;;;;;;13.48;7.68;;;;;;;;;;5138124;27;20039;-71
2023/06/02 00:53:01;;;;;;;14.57;6.90;;;;;;;;;;5137224;27;20023;-70
2023/06/02 00:55:30;;;;;;;13.20;6.88;;;;;;;;;;5136460;27;20074;-71
2023/06/02 00:58:04;;;;;;;11.70;6.63;;;;;;;;;;5136406;27;20364;-71
2023/06/02 01:00:36;;;;;;;10.90;6.68;;;;;;;;;;5136072;27;20392;-72
2023/06/02 01:03:02;;;;;;;15.65;6.82;;;;;;;;;;5136091;27;20011;-69
2023/06/02 01:05:28;;;;;;;12.60;7.63;;;;;;;;;;5136235;27;20031;-71
2023/06/02 01:07:58;;;;;;;10.30;6.80;;;;;;;;;;5136222;27;20361;-72
2023/06/02 01:10:23;;;;;;;12.93;6.38;;;;;;;;;;5137489;27;20052;-71
2023/06/02 01:12:50;;;;;;;10.27;6.75;;;;;;;;;;5135198;27;20028;-70
2023/06/02 01:15:15;;;;;;;16.63;6.80;;;;;;;;;;5137252;27;20054;-71
2023/06/02 01:17:45;;;;;;;15.35;7.32;;;;;;;;;;5136644;27;20548;-71
2023/06/02 01:20:21;;;;;;;13.75;8.02;;;;;;;;;;5136451;27;20027;-72
2023/06/02 01:22:53;;;;;;;10.20;6.47;;;;;;;;;;5118683;27;20110;-71
2023/06/02 01:25:28;;;;;;;10.70;6.97;;;;;;;;;;5135872;27;20023;-70
2023/06/02 01:27:56;;;;;;;16.92;7.40;;;;;;;;;;5135932;27;20185;-72
2023/06/02 01:30:26;;;;;;;12.98;7.22;;;;;;;;;;5135957;27;20023;-71
2023/06/02 01:32:57;;;;;;;15.73;7.80;;;;;;;;;;5136940;27;20019;-70
2023/06/02 01:35:27;;;;;;;14.45;7.50;;;;;;;;;;5117882;27;20023;-71
2023/06/02 01:37:56;;;;;;;13.05;7.93;;;;;;;;;;5136230;27;20030;-71
2023/06/02 01:40:25;;;;;;;13.63;7.43;;;;;;;;;;5135643;27;20023;-70
2023/06/02 01:42:51;;;;;;;16.73;7.80;;;;;;;;;;5116646;27;20027;-72
2023/06/02 01:45:19;;;;;;;13.23;8.68;;;;;;;;;;5135983;27;20019;-70
2023/06/02 01:47:45;;;;;;;15.65;8.07;;;;;;;;;;5116720;27;20080;-71
2023/06/02 01:50:10;;;;;;;14.85;7.85;;;;;;;;;;5136366;27;20023;-71
2023/06/02 01:52:36;;;;;;;13.32;7.80;;;;;;;;;;5135699;27;20463;-71
2023/06/02 01:55:03;;;;;;;13.80;7.93;;;;;;;;;;5136936;27;20030;-70
2023/06/02 01:57:29;;;;;;;15.35;8.77;;;;;;;;;;5135753;27;20039;-72
2023/06/02 01:59:56;;;;;;;16.90;8.23;;;;;;;;;;5136554;27;20023;-69
2023/06/02 02:02:21;;;;;;;12.30;7.53;;;;;;;;;;5136487;27;20058;-71
2023/06/02 02:04:47;;;;;;;12.60;7.55;;;;;;;;;;5116944;27;20073;-72
2023/06/02 02:07:12;;;;;;;12.38;8.20;;;;;;;;;;5136246;27;20054;-70
2023/06/02 02:09:38;;;;;;;15.88;8.10;;;;;;;;;;5136682;27;20050;-71
2023/06/02 02:12:05;;;;;;;15.40;7.10;;;;;;;;;;5117850;27;20106;-71
2023/06/02 02:14:31;;;;;;;12.85;7.55;;;;;;;;;;5136389;27;20023;-72
2023/06/02 02:17:11;;;;;;;14.15;7.78;;;;;;;;;;5136669;27;20019;-71
2023/06/02 02:19:38;;;;;;;15.55;8.48;;;;;;;;;;5136617;27;20019;-71
2023/06/02 02:22:04;;;;;;;13.82;7.90;;;;;;;;;;5136102;27;20034;-72
2023/06/02 02:24:30;;;;;;;13.57;8.18;;;;;;;;;;5135031;27;20431;-70
2023/06/02 02:26:55;;;;;;;12.73;7.43;;;;;;;;;;5136292;27;20035;-72
2023/06/02 02:29:21;;;;;;;12.13;7.78;;;;;;;;;;5136309;27;20023;-71
2023/06/02 02:31:48;;;;;;;12.40;7.93;;;;;;;;;;5135527;27;20035;-70
2023/06/02 02:34:14;;;;;;;14.13;8.68;;;;;;;;;;5135942;27;20019;-72
2023/06/02 02:36:40;;;;;;;23.92;7.78;;;;;;;;;;5136028;27;20031;-71
2023/06/02 02:39:12;;;;;;;13.80;7.47;;;;;;;;;;5135961;27;20034;-71
2023/06/02 02:41:37;;;;;;;11.07;7.40;;;;;;;;;;5135820;27;20272;-72
2023/06/02 02:44:04;;;;;;;13.40;8.23;;;;;;;;;;5134544;27;20089;-71
2023/06/02 02:46:30;;;;;;;15.90;8.70;;;;;;;;;;5135760;27;20285;-71
2023/06/02 02:48:56;;;;;;;13.90;7.30;;;;;;;;;;5135957;27;20015;-70
2023/06/02 02:51:23;;;;;;;11.45;7.47;;;;;;;;;;5135487;27;20048;-71
2023/06/02 02:53:49;;;;;;;13.20;7.45;;;;;;;;;;5135618;27;20023;-71
2023/06/02 02:56:15;;;;;;;9.23;6.90;;;;;;;;;;5117490;27;20026;-71
2023/06/02 02:58:40;;;;;;;14.35;7.85;;;;;;;;;;5134974;27;20039;-71
2023/06/02 03:01:15;;;;;;;15.65;7.85;;;;;;;;;;5135310;27;20047;-71
2023/06/02 03:03:49;;;;;;;14.65;7.43;;;;;;;;;;5130400;27;20031;-72
2023/06/02 03:06:18;;;;;;;14.48;7.80;;;;;;;;;;5135419;27;20019;-71
2023/06/02 03:08:45;;;;;;;15.57;9.27;;;;;;;;;;5135525;27;20023;-71
2023/06/02 03:11:21;;;;;;;15.77;7.25;;;;;;;;;;5135243;27;20487;-72
2023/06/02 03:13:48;;;;;;;13.93;8.18;;;;;;;;;;5135233;27;20482;-70
2023/06/02 03:16:16;;;;;;;13.38;7.22;;;;;;;;;;5135136;27;20054;-71
2023/06/02 03:18:42;;;;;;;13.43;7.32;;;;;;;;;;5135271;27;20023;-71
2023/06/02 03:21:07;;;;;;;16.20;7.90;;;;;;;;;;5135377;27;20022;-71
2023/06/02 03:23:34;;;;;;;19.40;8.53;;;;;;;;;;5135021;27;20015;-71
2023/06/02 03:26:08;;;;;;;15.25;8.57;;;;;;;;;;5134915;27;20273;-71
2023/06/02 03:28:35;;;;;;;12.82;7.43;;;;;;;;;;5133287;27;20051;-71
2023/06/02 03:31:00;;;;;;;12.65;7.25;;;;;;;;;;5135095;27;20015;-71
2023/06/02 03:33:25;;;;;;;17.17;8.38;;;;;;;;;;5134781;27;20046;-71
2023/06/02 03:35:51;;;;;;;15.85;8.40;;;;;;;;;;5134892;27;20102;-71
2023/06/02 03:38:18;;;;;;;16.67;8.05;;;;;;;;;;5116284;27;20107;-71
2023/06/02 03:40:44;;;;;;;16.73;8.25;;;;;;;;;;5134761;27;20023;-72
2023/06/02 03:43:09;;;;;;;14.23;8.85;;;;;;;;;;5134605;27;20042;-71
2023/06/02 03:45:34;;;;;;;15.67;8.53;;;;;;;;;;5134699;27;20444;-72
2023/06/02 03:48:01;;;;;;;12.38;8.40;;;;;;;;;;5134592;27;20291;-74
2023/06/02 03:50:27;;;;;;;12.10;7.90;;;;;;;;;;5134803;27;20098;-72
2023/06/02 03:52:53;;;;;;;16.57;8.17;;;;;;;;;;5134662;27;20417;-72
2023/06/02 03:55:18;;;;;;;16.75;8.25;;;;;;;;;;5116088;27;20268;-72
2023/06/02 03:57:47;;;;;;;13.57;7.72;;;;;;;;;;5134325;27;20046;-70
2023/06/02 04:00:14;;;;;;;18.60;7.65;;;;;;;;;;5112220;28;20461;-71
2023/06/02 04:02:39;;;;;;;12.75;7.72;;;;;;;;;;5114085;28;20300;-70
2023/06/02 04:05:06;;;;;;;16.77;8.23;;;;;;;;;;5113876;28;20120;-70
2023/06/02 04:07:31;;;;;;;16.42;8.30;;;;;;;;;;5113746;28;20457;-71
2023/06/02 04:09:56;;;;;;;15.90;7.70;;;;;;;;;;5113908;28;20015;-71
2023/06/02 04:12:22;;;;;;;13.87;8.03;;;;;;;;;;5113903;28;20782;-71
2023/06/02 04:14:48;;;;;;;14.10;8.40;;;;;;;;;;5113897;28;20334;-71
2023/06/02 04:17:13;;;;;;;16.85;8.40;;;;;;;;;;5113109;28;20710;-70
2023/06/02 04:19:39;;;;;;;20.97;8.73;;;;;;;;;;5113602;28;20023;-71
2023/06/02 04:22:05;;;;;;;13.68;8.40;;;;;;;;;;5113513;28;20652;-70
2023/06/02 04:24:31;;;;;;;18.35;7.78;;;;;;;;;;5113871;28;20031;-72
2023/06/02 04:26:57;;;;;;;13.43;7.50;;;;;;;;;;5113459;28;20046;-70
2023/06/02 04:29:24;;;;;;;16.13;8.40;;;;;;;;;;5113749;28;20297;-71
2023/06/02 04:31:50;;;;;;;21.27;8.65;;;;;;;;;;5113988;28;20024;-72
2023/06/02 04:34:16;;;;;;;22.80;7.88;;;;;;;;;;5113687;28;20023;-72
2023/06/02 04:36:42;;;;;;;16.35;7.57;;;;;;;;;;5113257;28;20023;-72
2023/06/02 04:39:09;;;;;;;16.02;7.70;;;;;;;;;;5112152;28;20100;-71
2023/06/02 04:41:43;;;;;;;21.45;8.57;;;;;;;;;;5113398;28;20031;-72
2023/06/02 04:44:10;;;;;;;15.00;8.27;;;;;;;;;;5097357;28;20122;-71
2023/06/02 04:46:35;;;;;;;15.52;7.60;;;;;;;;;;5113439;28;20077;-75
2023/06/02 04:49:06;;;;;;;15.35;8.07;;;;;;;;;;5113230;28;20019;-74
2023/06/02 04:51:35;;;;;;;15.82;6.97;;;;;;;;;;5112984;28;20444;-74
2023/06/02 04:54:02;;;;;;;10.52;5.93;;;;;;;;;;5112799;28;20028;-75
2023/06/02 04:56:27;;;;;;;13.30;5.75;;;;;;;;;;5113162;28;20501;-75
2023/06/02 04:58:54;;;;;;;13.85;5.93;;;;;;;;;;5113257;28;20020;-73
2023/06/02 05:01:21;;;;;;;13.95;6.45;;;;;;;;;;5126776;28;20566;-72
2023/06/02 05:03:47;;;;;;;20.88;5.65;;;;;;;;;;5134008;28;20020;-73
2023/06/02 05:06:12;;;;;;;14.15;6.20;;;;;;;;;;5133803;28;20030;-73
2023/06/02 05:08:38;;;;;;;11.23;5.27;;;;;;;;;;5133647;28;20090;-74
2023/06/02 05:11:05;;;;;;;14.95;5.53;;;;;;;;;;5133573;28;20598;-72
2023/06/02 05:13:31;;;;;;;12.85;5.43;;;;;;;;;;5133740;28;20011;-72
2023/06/02 05:15:56;;;;;;;13.20;5.28;;;;;;;;;;5133465;28;20012;-74
2023/06/02 05:18:23;;;;;;;16.60;5.95;;;;;;;;;;5133652;28;20027;-73
2023/06/02 05:20:55;;;;;;;13.27;5.32;;;;;;;;;;5132648;28;20164;-71
2023/06/02 05:23:21;;;;;;;12.23;5.40;;;;;;;;;;5133566;28;20509;-73
2023/06/02 05:25:50;;;;;;;15.43;6.20;;;;;;;;;;5132888;28;20019;-72
2023/06/02 05:28:15;;;;;;;14.82;5.60;;;;;;;;;;5116461;27;20280;-72
2023/06/02 05:30:40;;;;;;;8.13;5.10;;;;;;;;;;5135263;27;20031;-70
2023/06/02 05:33:11;;;;;;;25.47;5.47;;;;;;;;;;5125021;27;20066;-71
2023/06/02 05:35:37;;;;;;;12.13;5.05;;;;;;;;;;5135957;27;20409;-72
2023/06/02 05:38:04;;;;;;;12.55;4.80;;;;;;;;;;5136389;27;20022;-73
2023/06/02 05:40:30;;;;;;;11.30;4.50;;;;;;;;;;5136389;27;20463;-74
2023/06/02 05:42:57;;;;;;;14.23;4.72;;;;;;;;;;5136938;27;20015;-72
2023/06/02 05:45:23;;;;;;;8.48;3.97;;;;;;;;;;5136098;27;20019;-72
2023/06/02 05:47:49;;;;;;;9.27;3.45;;;;;;;;;;5135313;27;20106;-72
2023/06/02 05:50:14;;;;;;;8.35;4.03;;;;;;;;;;5134812;27;20111;-71
2023/06/02 05:52:41;;;;;;;8.70;3.20;;;;;;;;;;5135725;27;20090;-71
2023/06/02 05:55:07;;;;;;;8.15;3.20;;;;;;;;;;5135660;27;20060;-72
2023/06/02 05:57:40;;;;;;;6.80;3.25;;;;;;;;;;5135353;27;20019;-72
2023/06/02 06:00:08;;;;;;;10.20;3.60;;;;;;;;;;5135297;27;20042;-73
2023/06/02 06:02:34;;;;;;;13.65;3.15;;;;;;;;;;5135527;27;20107;-72
2023/06/02 06:05:00;;;;;;;11.75;3.70;;;;;;;;;;5136772;27;20019;-73
2023/06/02 06:07:26;;;;;;;6.05;2.60;;;;;;;;;;5117899;27;20072;-80
2023/06/02 06:09:52;;;;;;;8.07;2.97;;;;;;;;;;5118104;27;20016;-79
2023/06/02 06:12:17;;;;;;;6.55;2.90;;;;;;;;;;5136377;27;20019;-79
2023/06/02 06:14:43;;;;;;;9.87;3.03;;;;;;;;;;5136395;27;20014;-79
2023/06/02 06:17:11;;;;;;;11.48;3.30;;;;;;;;;;5136495;27;20472;-79
2023/06/02 06:19:36;;;;;;;10.38;2.35;;;;;;;;;;5136518;27;20102;-80
2023/06/02 06:22:02;;;;;;;8.77;2.47;;;;;;;;;;5136063;27;20103;-78
2023/06/02 06:24:28;;;;;;;7.47;2.65;;;;;;;;;;5136469;27;20264;-79
2023/06/02 06:26:54;;;;;;;13.37;2.47;;;;;;;;;;5136459;27;20079;-79
2023/06/02 06:29:20;;;;;;;12.50;2.60;;;;;;;;;;5136227;27;20015;-79
2023/06/02 06:31:45;;;;;;;8.25;2.00;;;;;;;;;;5135734;27;20007;-80
2023/06/02 06:34:11;;;;;;;4.87;2.47;;;;;;;;;;5135783;27;20011;-79
2023/06/02 06:36:36;;;;;;;33.72;4.20;;;;;;;;;;5117212;27;20036;-79
2023/06/02 06:39:03;;;;;;;12.85;2.70;;;;;;;;;;5135156;27;20069;-79
2023/06/02 06:41:29;;;;;;;6.22;2.20;;;;;;;;;;5117828;27;20479;-78
2023/06/02 06:43:55;;;;;;;10.20;2.30;;;;;;;;;;5135195;27;20027;-80
2023/06/02 06:46:22;;;;;;;10.30;2.40;;;;;;;;;;5135981;27;20049;-79
2023/06/02 06:48:47;;;;;;;15.63;2.65;;;;;;;;;;5136012;27;20522;-80
2023/06/02 06:51:13;;;;;;;8.73;2.77;;;;;;;;;;5117679;27;20098;-78
2023/06/02 06:53:40;;;;;;;9.65;1.98;;;;;;;;;;5135889;27;20312;-79
2023/06/02 06:56:06;;;;;;;7.72;2.28;;;;;;;;;;5136204;27;20022;-79
2023/06/02 06:58:31;;;;;;;9.95;2.90;;;;;;;;;;5118926;27;20431;-79
2023/06/02 07:00:58;;;;;;;4.83;2.83;;;;;;;;;;5118872;28;20047;-79
2023/06/02 07:03:23;;;;;;;8.35;2.95;;;;;;;;;;5116004;27;20257;-77
2023/06/02 07:05:52;;;;;;;8.80;2.97;;;;;;;;;;5116649;28;20016;-80
2023/06/02 07:08:18;;;;;;;10.10;2.65;;;;;;;;;;5114315;28;20039;-69
2023/06/02 07:10:44;;;;;;;7.32;2.97;;;;;;;;;;5114930;28;20072;-72
2023/06/02 07:13:09;;;;;;;5.40;2.92;;;;;;;;;;5114819;28;20031;-70
2023/06/02 07:15:36;;;;;;;12.02;3.45;;;;;;;;;;5114660;28;20015;-70
2023/06/02 07:18:17;;;;;;;9.13;2.58;;;;;;;;;;5114691;28;20035;-71
2023/06/02 07:20:43;;;;;;;8.30;2.42;;;;;;;;;;5114572;28;20103;-71
2023/06/02 07:23:09;;;;;;;10.00;3.10;;;;;;;;;;5114499;28;20054;-69
2023/06/02 07:25:36;;;;;;;9.30;2.70;;;;;;;;;;5114292;28;20273;-72
2023/06/02 07:28:05;;;;;;;12.40;2.75;;;;;;;;;;5114429;28;20106;-73
2023/06/02 07:30:31;;;;;;;7.28;2.60;;;;;;;;;;5114637;28;20020;-74
2023/06/02 07:32:58;;;;;;;7.90;2.50;;;;;;;;;;5114449;28;20076;-72
2023/06/02 07:35:25;;;;;;;11.88;2.58;;;;;;;;;;5114239;28;20102;-72
2023/06/02 07:37:52;;;;;;;10.15;2.60;;;;;;;;;;5114667;28;20132;-73
2023/06/02 07:40:19;;;;;;;9.25;2.83;;;;;;;;;;5112544;28;20032;-72
2023/06/02 07:42:46;;;;;;;8.93;3.03;;;;;;;;;;5098078;28;20049;-71
2023/06/02 07:45:12;;;;;;;15.02;2.90;;;;;;;;;;5073294;28;20038;-68
2023/06/02 07:47:39;;;;;;;7.18;3.08;;;;;;;;;;5073354;28;20028;-69
2023/06/02 07:50:05;;;;;;;16.73;3.25;;;;;;;;;;5073040;28;20017;-68
2023/06/02 07:52:38;;;;;;;7.22;2.75;;;;;;;;;;5073122;28;20021;-69
2023/06/02 07:55:05;;;;;;;7.53;2.42;;;;;;;;;;5073580;28;20082;-69
2023/06/02 07:57:30;;;;;;;11.05;3.90;;;;;;;;;;5073407;28;20036;-72
2023/06/02 07:59:56;;;;;;;6.37;2.67;;;;;;;;;;5074899;28;20028;-70
2023/06/02 08:02:23;;;;;;;10.00;3.17;;;;;;;;;;5075230;28;20358;-72
2023/06/02 08:04:50;;;;;;;7.43;3.00;;;;;;;;;;5093308;28;20419;-69
2023/06/02 08:07:16;;;;;;;9.25;2.60;;;;;;;;;;5089456;28;20040;-69
2023/06/02 08:09:42;;;;;;;9.73;2.58;;;;;;;;;;5093516;28;20100;-69
2023/06/02 08:12:09;;;;;;;8.70;2.60;;;;;;;;;;5093223;28;20092;-70
2023/06/02 08:14:34;;;;;;;8.40;2.67;;;;;;;;;;5093260;28;20020;-68
2023/06/02 08:17:08;;;;;;;7.80;2.65;;;;;;;;;;5093583;28;20022;-69
2023/06/02 08:19:35;;;;;;;11.38;2.90;;;;;;;;;;5075443;28;20057;-68
2023/06/02 08:22:02;;;;;;;4.72;2.33;;;;;;;;;;5093738;28;20024;-69
2023/06/02 08:24:31;;;;;;;5.93;3.05;;;;;;;;;;5093301;28;20370;-69
2023/06/02 08:27:00;;;;;;;9.13;3.15;;;;;;;;;;5093192;28;20020;-68
2023/06/02 08:29:27;;;;;;;6.35;3.45;;;;;;;;;;5093408;28;20012;-69
2023/06/02 08:31:56;;;;;;;9.50;2.60;;;;;;;;;;5093269;28;20103;-69
2023/06/02 08:34:24;;;;;;;5.72;2.83;;;;;;;;;;5093301;28;20020;-68
2023/06/02 08:37:00;;;;;;;9.45;3.28;;;;;;;;;;5093386;28;20020;-67
2023/06/02 08:39:26;;;;;;;7.30;2.85;;;;;;;;;;5074966;28;20016;-68
2023/06/02 08:41:53;;;;;;;7.25;2.92;;;;;;;;;;5093339;28;20097;-69
2023/06/02 08:44:19;;;;;;;25.05;3.58;;;;;;;;;;5093256;28;20027;-68
2023/06/02 08:46:51;;;;;;;8.70;2.92;;;;;;;;;;5093187;28;20020;-68
2023/06/02 08:49:21;;;;;;;10.40;3.70;;;;;;;;;;5074932;28;20035;-71
2023/06/02 08:51:49;;;;;;;19.23;4.07;;;;;;;;;;5074923;28;20409;-67
2023/06/02 08:54:15;;;;;;;11.60;3.17;;;;;;;;;;5092910;28;20028;-69
2023/06/02 08:56:49;;;;;;;12.05;3.05;;;;;;;;;;5088613;28;20047;-70
2023/06/02 08:59:19;;;;;;;6.80;3.25;;;;;;;;;;5092849;28;20031;-68
2023/06/02 09:01:47;;;;;;;10.18;2.88;;;;;;;;;;5093032;28;20047;-68
2023/06/02 09:04:12;;;;;;;12.05;2.47;;;;;;;;;;5078703;28;20059;-67
2023/06/02 09:06:39;;;;;;;10.98;3.08;;;;;;;;;;5078366;28;20132;-69
2023/06/02 09:09:04;;;;;;;17.27;3.53;;;;;;;;;;5096789;28;20031;-68
2023/06/02 09:11:32;;;;;;;9.20;3.20;;;;;;;;;;5096983;28;20016;-70
2023/06/02 09:13:58;;;;;;;7.22;2.60;;;;;;;;;;5078793;28;20281;-70
2023/06/02 09:16:34;;;;;;;8.65;2.42;;;;;;;;;;5078769;28;20028;-69
2023/06/02 09:19:00;;;;;;;9.77;2.58;;;;;;;;;;5079068;28;20118;-71
2023/06/02 09:21:28;;;;;;;7.38;2.85;;;;;;;;;;5097570;28;20016;-70
2023/06/02 09:23:56;;;;;;;10.30;2.47;;;;;;;;;;5079189;28;20031;-68
2023/06/02 09:26:22;;;;;;;5.85;2.28;;;;;;;;;;5078897;28;20032;-71
2023/06/02 09:29:11;;;;;;;9.60;2.55;;;;;;;;;;5078707;28;20016;-70
2023/06/02 09:31:50;;;;;;;13.18;3.20;;;;;;;;;;5096185;28;20016;-71
2023/06/02 09:34:16;;;;;;;7.63;2.85;;;;;;;;;;5096228;28;20023;-70
2023/06/02 09:36:43;;;;;;;11.57;3.45;;;;;;;;;;5078156;28;20020;-71
2023/06/02 09:39:10;;;;;;;7.70;2.88;;;;;;;;;;5096180;28;20020;-69
2023/06/02 09:41:37;;;;;;;10.93;3.42;;;;;;;;;;5096190;28;20043;-69
2023/06/02 09:44:10;;;;;;;12.68;3.55;;;;;;;;;;5096020;28;20055;-70
2023/06/02 09:46:45;;;;;;;14.40;3.88;;;;;;;;;;5095997;28;20456;-69
2023/06/02 09:49:11;;;;;;;12.40;3.63;;;;;;;;;;5096028;28;20024;-69
2023/06/02 09:51:51;;;;;;;12.70;3.53;;;;;;;;;;5096343;28;20016;-71
2023/06/02 09:54:18;;;;;;;12.52;3.60;;;;;;;;;;5095889;28;20518;-71
2023/06/02 09:56:43;;;;;;;8.98;3.92;;;;;;;;;;5095963;28;20019;-71
2023/06/02 09:59:09;;;;;;;6.72;3.25;;;;;;;;;;5095964;28;20031;-71
2023/06/02 10:01:37;;;;;;;8.23;3.65;;;;;;;;;;5095650;28;20064;-71
2023/06/02 10:04:03;;;;;;;8.70;3.95;;;;;;;;;;5096152;28;20028;-73
2023/06/02 10:06:38;;;;;;;9.20;3.55;;;;;;;;;;5077626;28;20028;-75
2023/06/02 10:09:10;;;;;;;16.15;3.85;;;;;;;;;;5095544;28;20461;-75
2023/06/02 10:11:39;;;;;;;8.38;4.03;;;;;;;;;;5095579;28;20345;-72
2023/06/02 10:14:24;;;;;;;7.88;3.20;;;;;;;;;;5094699;28;20070;-73
2023/06/02 10:17:09;;;;;;;8.38;4.18;;;;;;;;;;5096677;28;20381;-75
2023/06/02 10:19:34;;;;;;;8.77;4.05;;;;;;;;;;5095988;28;20020;-74
2023/06/02 10:22:28;;;;;;;10.25;3.53;;;;;;;;;;5096288;28;20042;-73
2023/06/02 10:24:56;;;;;;;13.20;4.35;;;;;;;;;;5091554;28;20081;-76
2023/06/02 10:27:33;;;;;;;13.68;3.80;;;;;;;;;;5095824;28;20028;-74
2023/06/02 10:30:03;;;;;;;15.60;3.85;;;;;;;;;;5095362;28;20024;-72
2023/06/02 10:32:33;;;;;;;9.93;3.47;;;;;;;;;;5095908;28;20020;-73
2023/06/02 10:35:00;;;;;;;19.90;3.85;;;;;;;;;;5095781;28;20020;-77
2023/06/02 10:37:26;;;;;;;12.73;2.90;;;;;;;;;;5094892;28;20044;-75
2023/06/02 10:39:56;;;;;;;6.28;2.97;;;;;;;;;;5095392;28;20016;-75
2023/06/02 10:42:24;;;;;;;6.38;2.50;;;;;;;;;;5077054;28;20122;-76
2023/06/02 10:44:52;;;;;;;8.00;3.20;;;;;;;;;;5077510;28;20093;-74
2023/06/02 10:47:19;;;;;;;11.27;3.35;;;;;;;;;;5077667;28;20032;-74
2023/06/02 10:50:02;;;;;;;13.45;3.10;;;;;;;;;;5095591;28;20026;-75
2023/06/02 10:52:35;;;;;;;8.32;2.97;;;;;;;;;;5095197;28;20024;-74
2023/06/02 10:55:06;;;;;;;10.63;2.58;;;;;;;;;;5077106;28;20408;-74
2023/06/02 10:57:31;;;;;;;;;;;;;;;;;;5096004;28;20036;-75
2023/06/02 10:59:58;;;;;;;8.52;2.88;;;;;;;;;;5095015;28;19911;-75
2023/06/02 11:02:42;;;;;;;8.88;2.65;;;;;;;;;;5094573;28;20105;-75
2023/06/02 11:05:25;;;;;;;7.60;2.50;;;;;;;;;;5094728;28;20433;-74
2023/06/02 11:08:12;;;;;;;10.52;3.03;;;;;;;;;;5075748;28;20064;-75
2023/06/02 11:10:52;;;;;;;11.32;3.42;;;;;;;;;;5076337;28;20028;-75
2023/06/02 11:13:26;;;;;;;8.50;2.92;;;;;;;;;;5093958;28;20099;-74
2023/06/02 11:15:58;;;;;;;15.95;3.67;;;;;;;;;;5092676;28;20047;-74
2023/06/02 11:18:33;;;;;;;7.05;3.03;;;;;;;;;;5093491;28;20020;-74
2023/06/02 11:21:02;;;;;;;9.88;3.05;;;;;;;;;;5093313;28;20035;-73
2023/06/02 11:23:29;;;;;;;14.50;3.55;;;;;;;;;;5093332;28;20427;-75
2023/06/02 11:26:04;;;;;;;7.15;2.55;;;;;;;;;;5093245;28;20024;-74
2023/06/02 11:28:30;;;;;;;9.32;2.30;;;;;;;;;;5075087;28;20051;-75
2023/06/02 11:31:04;;;;;;;9.68;3.03;;;;;;;;;;5093375;28;20048;-74
2023/06/02 11:33:38;;;;;;;11.07;3.65;;;;;;;;;;5093793;28;20095;-75
2023/06/02 11:36:06;;;;;;;9.85;3.33;;;;;;;;;;5075639;28;20043;-76
2023/06/02 11:38:47;;;;;;;7.20;2.85;;;;;;;;;;5094498;28;20046;-74
2023/06/02 11:41:18;;;;;;;10.88;2.80;;;;;;;;;;5094088;28;20020;-74
2023/06/02 11:43:47;;;;;;;8.27;2.70;;;;;;;;;;5089847;28;20035;-75
2023/06/02 11:46:21;;;;;;;7.93;3.08;;;;;;;;;;5076372;28;20020;-75
2023/06/02 11:49:08;;;;;;;12.32;3.45;;;;;;;;;;5076360;28;20032;-75
2023/06/02 11:51:35;;;;;;;9.15;3.53;;;;;;;;;;5094318;28;20507;-75
2023/06/02 11:54:16;;;;;;;12.05;4.47;;;;;;;;;;5075890;28;20019;-75
2023/06/02 11:56:42;;;;;;;7.03;3.20;;;;;;;;;;5094015;28;20019;-75
2023/06/02 11:59:14;;;;;;;9.95;3.88;;;;;;;;;;5093267;28;20051;-76
2023/06/02 12:01:41;;;;;;;10.77;3.50;;;;;;;;;;5093281;28;20040;-73
2023/06/02 12:04:11;;;;;;;5.22;3.10;;;;;;;;;;5093610;28;20447;-74
2023/06/02 12:06:47;;;;;;;6.20;3.50;;;;;;;;;;5093540;28;20024;-74
2023/06/02 12:09:29;;;;;;;9.55;3.17;;;;;;;;;;5093492;28;20460;-74
2023/06/02 12:12:06;;;;;;;10.38;3.83;;;;;;;;;;5093407;28;20016;-74
2023/06/02 12:14:41;;;;;;;10.13;3.65;;;;;;;;;;5092568;28;20080;-74
2023/06/02 12:17:06;;;;;;;7.68;3.80;;;;;;;;;;5093728;28;20016;-75
2023/06/02 12:19:33;;;;;;;14.30;7.13;;;;;;;;;;5093845;28;20518;-73
2023/06/02 12:22:05;;;;;;;9.40;4.18;;;;;;;;;;5093534;28;20266;-75
2023/06/02 12:24:44;;;;;;;9.13;3.33;;;;;;;;;;5075293;28;20048;-75
2023/06/02 12:27:27;;;;;;;7.30;3.53;;;;;;;;;;5074818;28;20032;-74
2023/06/02 12:29:53;;;;;;;8.63;4.03;;;;;;;;;;5093370;28;20023;-74
2023/06/02 12:32:33;;;;;;;5.07;3.35;;;;;;;;;;5093621;28;20020;-73
2023/06/02 12:34:59;;;;;;;7.32;3.50;;;;;;;;;;5093289;28;20022;-75
2023/06/02 12:37:25;;;;;;;6.77;4.10;;;;;;;;;;5095251;28;20060;-74
2023/06/02 12:39:50;;;;;;;9.82;3.97;;;;;;;;;;5097796;28;20266;-73
2023/06/02 12:42:18;;;;;;;9.55;4.57;;;;;;;;;;5097774;28;20055;-73
2023/06/02 12:44:44;;;;;;;8.23;3.50;;;;;;;;;;5097538;28;20024;-74
2023/06/02 12:47:10;;;;;;;11.45;3.92;;;;;;;;;;5097529;28;20023;-74
2023/06/02 12:49:52;;;;;;;12.85;5.32;;;;;;;;;;5097207;28;20449;-74
2023/06/02 12:52:20;;;;;;;6.68;3.55;;;;;;;;;;5097575;28;20020;-76
2023/06/02 12:54:45;;;;;;;17.40;6.93;;;;;;;;;;5097258;28;20022;-74
2023/06/02 12:57:12;;;;;;;10.00;3.63;;;;;;;;;;5097412;28;20494;-74
2023/06/02 12:59:37;;;;;;;11.02;3.50;;;;;;;;;;5096914;28;20258;-75
2023/06/02 13:02:02;;;;;;;6.73;2.90;;;;;;;;;;5096680;28;20135;-73
2023/06/02 13:04:28;;;;;;;5.53;3.05;;;;;;;;;;5097228;28;20661;-73
2023/06/02 13:06:55;;;;;;;5.53;2.55;;;;;;;;;;5096978;28;20095;-75
2023/06/02 13:09:20;;;;;;;9.82;3.38;;;;;;;;;;5078165;28;20032;-74
2023/06/02 13:11:48;;;;;;;8.43;2.80;;;;;;;;;;5096913;28;20065;-74
2023/06/02 13:14:14;;;;;;;6.68;2.50;;;;;;;;;;5097923;28;20270;-75
2023/06/02 13:16:41;;;;;;;3.75;2.47;;;;;;;;;;5098474;28;20014;-77
2023/06/02 13:19:07;;;;;;;3.55;2.38;;;;;;;;;;5100478;28;20461;-79
2023/06/02 13:21:33;;;;;;;6.18;2.38;;;;;;;;;;5101844;28;20023;-77
2023/06/02 13:23:59;;;;;;;5.50;2.55;;;;;;;;;;5117370;28;20153;-77
2023/06/02 13:26:26;;;;;;;8.63;3.58;;;;;;;;;;5117851;28;20073;-77
2023/06/02 13:29:07;;;;;;;7.47;3.30;;;;;;;;;;5116890;28;20027;-77
2023/06/02 13:31:33;;;;;;;8.57;3.28;;;;;;;;;;5116792;28;20014;-77
2023/06/02 13:33:58;;;;;;;8.30;3.03;;;;;;;;;;5116753;28;20124;-79
2023/06/02 13:36:24;;;;;;;5.43;3.40;;;;;;;;;;5128580;27;20550;-77
2023/06/02 13:38:50;;;;;;;5.72;3.15;;;;;;;;;;5116960;27;20272;-79
2023/06/02 13:41:21;;;;;;;8.13;3.60;;;;;;;;;;5117039;28;20016;-78
2023/06/02 13:43:47;;;;;;;8.00;3.83;;;;;;;;;;5116943;28;20385;-78
2023/06/02 13:46:15;;;;;;;5.35;3.10;;;;;;;;;;5115304;28;20016;-78
2023/06/02 13:48:40;;;;;;;8.02;4.55;;;;;;;;;;5114584;28;20515;-77
2023/06/02 13:51:06;;;;;;;12.40;5.10;;;;;;;;;;5114571;28;20012;-77
2023/06/02 13:53:32;;;;;;;4.68;3.33;;;;;;;;;;5114383;28;20037;-78
2023/06/02 13:55:59;;;;;;;4.10;3.13;;;;;;;;;;5097996;28;20023;-78
2023/06/02 13:58:25;;;;;;;5.75;3.20;;;;;;;;;;5114832;28;20015;-77
2023/06/02 14:00:51;;;;;;;5.72;4.03;;;;;;;;;;5114612;28;20131;-78
2023/06/02 14:03:17;;;;;;;6.13;3.20;;;;;;;;;;5114794;28;20433;-80
2023/06/02 14:05:43;;;;;;;6.15;3.10;;;;;;;;;;5115386;28;20032;-78
2023/06/02 14:08:10;;;;;;;6.45;3.05;;;;;;;;;;5116654;28;20107;-77
2023/06/02 14:10:36;;;;;;;5.63;3.63;;;;;;;;;;5115039;28;20478;-78
2023/06/02 14:13:04;;;;;;;5.95;3.72;;;;;;;;;;5096820;28;20388;-78
2023/06/02 14:15:30;;;;;;;5.10;3.15;;;;;;;;;;5115077;28;20413;-77
2023/06/02 14:17:55;;;;;;;5.80;2.95;;;;;;;;;;5115166;28;20019;-78
2023/06/02 14:20:20;;;;;;;7.60;2.30;;;;;;;;;;5114256;28;20042;-78
2023/06/02 14:22:47;;;;;;;11.77;2.30;;;;;;;;;;5115202;28;20051;-79
2023/06/02 14:25:14;;;;;;;5.45;1.98;;;;;;;;;;5115892;28;20012;-78
2023/06/02 14:27:40;;;;;;;7.88;2.40;;;;;;;;;;5116526;28;20047;-79
2023/06/02 14:30:06;;;;;;;7.70;2.05;;;;;;;;;;5116163;28;20128;-78
2023/06/02 14:32:32;;;;;;;8.07;2.42;;;;;;;;;;5097965;28;20121;-77
2023/06/02 14:34:58;;;;;;;12.77;2.65;;;;;;;;;;5116541;28;20372;-78
2023/06/02 14:37:24;;;;;;;8.90;2.40;;;;;;;;;;5116026;28;20500;-78
2023/06/02 14:39:50;;;;;;;5.03;1.92;;;;;;;;;;5097667;28;20352;-78
2023/06/02 14:42:30;;;;;;;3.85;1.77;;;;;;;;;;5116044;28;20051;-77